Terminal Aerodrome Forecast
Issued by NWS El Paso, TX

Home | Current Version | Previous Version | Text Only | Print | Product List | Glossary On
Versions: 1 2 3 4 5 6 7 8 9 10 11 12 13 14 15 16 17 18 19
000
FTUS44 KEPZ 220500
TAFELP
TAF
KELP 220520Z 2206/2306 05005KT P6SM FEW060 SCT120
     FM220900 03006KT P6SM FEW015 SCT120 BKN250
     FM221600 VRB04KT P6SM FEW060 FEW250
     FM230300 05005KT P6SM FEW120=

USA.gov is the U.S. government's official web portal to all federal, state and local government web resources and services.